Tuesday, July 7, 2015, 7:20 AM EDT

KOXB, Ocean City Municipal Airport

Location: Berlin, MD, United States Lat: 38.317
Local Time: 7:20 AM EDT (11:20 GMT) Lon: -75.117
Time Zone: US/Eastern Elev: 13 ft

Show me the last for .
Show Decoded

2015-07-07 06:53 METAR KOXB 071053Z AUTO 22007KT 10SM CLR 25/23 A3006 RMK AO2 SLP178 T02500233
                 TSNO =
2015-07-07 05:53 METAR KOXB 070953Z AUTO 21005KT 4SM BR CLR 24/24 A3005 RMK AO2 SLP176 T02440239
                 TSNO =
2015-07-07 05:41 METAR KOXB 070941Z AUTO 21005KT 6SM BR FEW004 24/23 A3005 RMK AO2 T02440233 TSNO
                 =
2015-07-07 04:31 METAR KOXB 070831Z AUTO VRB03KT 7SM FEW009 25/24 A3005 RMK AO2 T02500239 TSNO =
2015-07-07 03:53 METAR KOXB 070753Z AUTO 20005KT 7SM OVC008 25/23 A3004 RMK AO2 CIG 006V011
                 SLP173 T02500233 TSNO =
2015-07-07 02:53 METAR KOXB 070653Z AUTO 20007KT 8SM OVC007 25/23 A3005 RMK AO2 CIG 006V010
                 SLP175 T02500233 TSNO =
2015-07-07 02:18 METAR KOXB 070618Z AUTO 20006KT 9SM BKN009 BKN015 25/23 A3005 RMK AO2 CIG
                 007V011 T02500233 TSNO =
2015-07-07 02:10 METAR KOXB 070610Z AUTO 21006KT 9SM SCT009 BKN017 25/23 A3005 RMK AO2 T02500233
                 TSNO =
2015-07-07 01:53 METAR KOXB 070553Z AUTO 21005KT 9SM SCT019 24/23 A3005 RMK AO2 SLP176 T02440233
                 10256 20244 58009 TSNO =
2015-07-07 01:22 METAR KOXB 070522Z AUTO 20005KT 9SM BKN021 24/23 A3006 RMK AO2 T02440233 TSNO =
2015-07-07 00:53 METAR KOXB 070453Z AUTO VRB05KT 8SM SCT022 24/23 A3007 RMK AO2 SLP181 T02440233
                 402830228 TSNO =
2015-07-07 00:37 METAR KOXB 070437Z AUTO VRB04KT 8SM FEW004 FEW011 24/23 A3007 RMK AO2 T02440233
                 TSNO =
2015-07-07 00:28 METAR KOXB 070428Z AUTO VRB03KT 8SM SCT006 SCT011 BKN026 24/23 A3007 RMK AO2
                 T02440233 TSNO =
2015-07-06 23:53 METAR KOXB 070353Z AUTO 19004KT 8SM OVC005 25/24 A3008 RMK AO2 CIG 004V008
                 SLP186 T02500239 TSNO =
2015-07-06 23:10 METAR KOXB 070310Z AUTO VRB05KT 8SM OVC008 25/24 A3008 RMK AO2 CIG 005V012
                 T02500239 TSNO =
2015-07-06 22:53 METAR KOXB 070253Z AUTO VRB06KT 8SM BKN010 25/23 A3008 RMK AO2 SLP186 T02500233
                 53003 TSNO =
2015-07-06 22:46 METAR KOXB 070246Z AUTO VRB03KT 7SM SCT009 25/23 A3008 RMK AO2 T02500233 TSNO =
2015-07-06 21:53 METAR KOXB 070153Z AUTO 18004KT 8SM CLR 25/23 A3008 RMK AO2 SLP185 T02500233
                 TSNO =
2015-07-06 19:53 METAR KOXB 062353Z AUTO 20005KT 8SM CLR 26/23 A3007 RMK AO2 SLP183 T02560233
                 10278 20256 55005 TSNO =
2015-07-06 18:53 METAR KOXB 062253Z AUTO 16004KT 7SM FEW008 26/24 A3007 RMK AO2 SLP182 T02610239
                 TSNO =
2015-07-06 18:30 METAR KOXB 062230Z AUTO 16004KT 8SM FEW008 26/24 A3007 RMK AO2 T02610239 TSNO =
2015-07-06 17:53 METAR KOXB 062153Z AUTO 20006KT 9SM CLR 26/24 A3007 RMK AO2 SLP184 T02610239
                 TSNO =
2015-07-06 16:53 METAR KOXB 062053Z AUTO 17007KT 10SM FEW007 27/24 A3009 RMK AO2 SLP188 T02720239
                 56008 TSNO =
2015-07-06 16:36 METAR KOXB 062036Z AUTO VRB06KT 10SM SCT007 27/24 A3009 RMK AO2 T02720244 TSNO =
2015-07-06 15:53 METAR KOXB 061953Z AUTO VRB05KT 10SM BKN006 27/24 A3009 RMK AO2 SLP190 T02720239
                 TSNO =
2015-07-06 15:30 METAR KOXB 061930Z AUTO 18006KT 10SM FEW009 27/23 A3010 RMK AO2 T02670233 TSNO =
2015-07-06 13:53 METAR KOXB 061753Z AUTO 17006KT 10SM CLR 28/21 A3011 RMK AO2 SLP196 T02780211
                 10283 20244 58013 TSNO =
2015-07-06 12:53 METAR KOXB 061653Z AUTO VRB03KT 10SM CLR 27/21 A3013 RMK AO2 SLP204 T02720211
                 TSNO =
2015-07-06 11:53 METAR KOXB 061553Z AUTO 18006KT 10SM CLR 27/21 A3014 RMK AO2 SLP207 T02670211
                 TSNO =
2015-07-06 10:53 METAR KOXB 061453Z AUTO 20006KT 10SM SCT006 27/24 A3015 RMK AO2 SLP209 T02670239
                 51007 TSNO =
2015-07-06 08:53 METAR KOXB 061253Z AUTO VRB04KT 7SM BKN006 25/23 A3014 RMK AO2 CIG 004V008
                 SLP206 T02500233 TSNO =
2015-07-06 08:29 METAR KOXB 061229Z AUTO 15005KT 7SM BKN004 25/23 A3013 RMK AO2 CIG 004V007
                 T02500233 TSNO =
2015-07-06 08:01 METAR KOXB 061201Z AUTO VRB04KT 7SM FEW004 25/23 A3013 RMK AO2 T02500233 TSNO =
2015-07-06 07:53 METAR KOXB 061153Z AUTO 15004KT 6SM BR CLR 24/23 A3013 RMK AO2 SLP202 60003
                 70003 T02440233 10244 20228 53003 TSNO =

Support USWX by starting your Amazon purchase here.